Latest Weather Observations for Merimbula

IDN60801

Issued at 11:35 am EST Monday 15 September 2014 (issued every 30 minutes, with the page automatically refreshed every 10 minutes)

About weather observations | Map of weather stations | Latest weather observations for NSW | Other Formats
Station Details ID: 069147 Name: MERIMBULA AIRPORT AWS Lat: -36.91 Lon: 149.90 Height: 1.5 m
Data from the previous 72 hours. | See also: Recent months at Merimbula
Date/Time
EST
Temp
°C
App
Temp
°C
Dew
Point
Rel
Hum
%
Delta-T
°C
Wind Press
QNH
hPa
Press
MSL
hPa
Rain
since 9 am
mm
Dir
 
Spd
km/h
Gust
km/h
Spd
kts
Gust
kts
15/11:30am 17.1 14.3 8.5 57 4.4 ESE 13 17 7 9 1016.9 - 0.0
15/11:00am 16.5 13.6 8.2 58 4.2 E 13 19 7 10 1017.4 - 0.0
15/10:30am 17.3 15.1 10.7 65 3.5 E 13 19 7 10 1017.7 - 0.0
15/10:00am 16.5 14.5 8.5 59 4.1 E 9 15 5 8 1017.9 - 0.0
15/09:30am 16.4 14.6 9.6 64 3.5 E 9 13 5 7 1018.2 - 0.0
15/09:00am 15.8 14.4 9.7 67 3.2 E 7 11 4 6 1018.3 1018.3 0.0
15/08:30am 14.3 14.3 9.7 74 2.4 CALM 0 0 0 0 1018.3 - 0.0
15/08:00am 12.0 11.8 9.2 83 1.4 CALM 0 0 0 0 1018.4 - 0.0
15/07:30am 10.5 10.4 9.3 92 0.6 CALM 0 0 0 0 1018.3 - 0.0
15/07:00am 9.5 9.2 8.7 95 0.4 CALM 0 0 0 0 1018.2 - 0.0
15/06:30am 8.0 7.3 7.1 94 0.4 CALM 0 0 0 0 1018.1 - 0.0
15/06:00am 8.3 7.3 7.4 94 0.4 SW 2 7 1 4 1017.9 1017.9 0.0
15/05:30am 8.6 6.7 7.5 93 0.5 SW 7 9 4 5 1017.8 - 0.0
15/05:00am 9.0 7.4 7.8 92 0.6 SW 6 7 3 4 1017.6 - 0.0
15/04:30am 9.5 8.4 8.3 92 0.6 WSW 4 6 2 3 1017.7 - 0.0
15/04:00am 9.7 9.4 8.5 92 0.6 CALM 0 0 0 0 1017.7 - 0.0
15/03:30am 9.8 7.8 8.6 92 0.6 SSW 9 11 5 6 1017.8 - 0.0
15/03:00am 9.8 9.1 8.7 93 0.5 W 2 9 1 5 1018.0 1018.0 0.0
15/02:30am 9.6 9.2 8.2 91 0.7 WSW 0 0 0 0 1018.2 - 0.0
15/02:00am 10.0 9.7 8.8 92 0.6 CALM 0 0 0 0 1018.4 - 0.0
15/01:30am 10.3 10.1 8.9 91 0.7 CALM 0 0 0 0 1018.7 - 0.0
15/01:00am 10.4 10.1 8.8 90 0.8 CALM 0 4 0 2 1019.0 - 0.0
15/12:30am 10.4 8.9 9.0 91 0.7 SSW 7 11 4 6 1018.9 - 0.0
15/12:00am 10.3 10.1 8.9 91 0.7 SSW 0 0 0 0 1019.1 1019.1 0.0
 
Date/Time
EST
Temp
°C
App
Temp
°C
Dew
Point
Rel
Hum
%
Delta-T
°C
Wind Press
QNH
hPa
Press
MSL
hPa
Rain
since 9 am
mm
Dir
 
Spd
km/h
Gust
km/h
Spd
kts
Gust
kts
14/11:30pm 10.5 10.4 9.3 92 0.6 CALM 0 0 0 0 1019.2 - 0.0
14/11:00pm 10.3 10.1 9.1 92 0.6 CALM 0 0 0 0 1019.3 - 0.0
14/10:30pm 10.2 9.6 8.8 91 0.7 WSW 2 7 1 4 1019.4 - 0.0
14/10:00pm 10.5 10.3 8.9 90 0.8 CALM 0 0 0 0 1019.5 - 0.0
14/09:30pm 11.1 11.0 9.5 90 0.8 CALM 0 0 0 0 1019.5 - 0.0
14/09:00pm 11.3 9.9 9.7 90 0.8 WNW 7 11 4 6 1019.5 1019.5 0.0
14/08:30pm 11.3 11.3 9.7 90 0.8 CALM 0 0 0 0 1019.5 - 0.0
14/08:00pm 10.9 10.6 8.8 87 1.0 CALM 0 6 0 3 1019.3 - 0.0
14/07:30pm 11.4 11.1 8.8 84 1.3 CALM 0 0 0 0 1019.0 - 0.0
14/07:00pm 12.2 11.7 7.9 75 2.1 CALM 0 0 0 0 1018.7 - 0.0
14/06:30pm 14.1 11.6 8.3 68 2.9 SSW 11 17 6 9 1018.4 - 0.0
14/06:00pm 14.7 12.9 10.7 77 2.1 WNW 11 15 6 8 1018.0 1018.0 0.0
14/05:30pm 15.5 14.1 10.9 74 2.4 NW 9 11 5 6 1017.7 - 0.0
14/05:00pm 15.7 14.8 10.7 72 2.7 N 6 9 3 5 1017.5 - 0.0
14/04:30pm 17.0 16.1 11.3 69 3.1 ESE 7 13 4 7 1017.5 - 0.0
14/04:00pm 17.2 15.1 11.2 68 3.2 ESE 13 19 7 10 1017.4 - 0.0
14/03:30pm 17.0 14.0 10.6 66 3.4 SE 17 28 9 15 1017.4 - 0.0
14/03:00pm 17.8 15.7 11.1 65 3.6 ESE 13 20 7 11 1017.4 1017.4 0.0
14/02:30pm 17.9 15.1 10.0 60 4.2 ESE 15 24 8 13 1017.2 - 0.0
14/02:00pm 18.0 15.4 10.6 62 4.0 ESE 15 22 8 12 1017.4 - 0.0
14/01:30pm 18.3 15.8 11.1 63 3.9 SE 15 22 8 12 1017.5 - 0.0
14/01:00pm 16.7 14.2 11.0 69 3.1 ESE 15 24 8 13 1017.7 - 0.0
14/12:30pm 17.7 15.7 11.5 67 3.4 E 13 20 7 11 1017.8 - 0.0
14/12:00pm 18.0 15.7 11.8 67 3.4 E 15 20 8 11 1018.3 1018.3 0.0
14/11:30am 17.5 15.4 11.3 67 3.4 E 13 19 7 10 1018.7 - 0.0
14/11:00am 18.2 16.3 11.7 66 3.6 E 13 19 7 10 1019.0 - 0.0
14/10:30am 17.1 15.2 10.5 65 3.5 E 11 17 6 9 1019.3 - 0.0
14/10:00am 16.7 14.4 10.5 67 3.3 E 13 20 7 11 1019.8 - 0.0
14/09:30am 17.6 16.7 11.2 66 3.5 E 7 11 4 6 1020.0 - 0.0
14/09:00am 16.7 16.8 10.3 66 3.4 CALM 0 0 0 0 1020.2 1020.2 0.0
14/08:30am 15.6 15.5 9.5 67 3.2 CALM 0 0 0 0 1020.3 - 0.0
14/08:00am 14.5 14.7 10.7 78 2.0 CALM 0 0 0 0 1020.3 - 0.0
14/07:30am 12.8 13.0 10.7 87 1.1 CALM 0 0 0 0 1020.3 - 0.0
14/07:00am 11.7 11.9 10.4 92 0.7 CALM 0 0 0 0 1020.3 - 0.0
14/06:30am 10.9 10.8 9.3 90 0.8 CALM 0 0 0 0 1020.1 - 0.0
14/06:00am 11.7 11.3 9.8 88 1.0 WNW 2 7 1 4 1020.1 1020.1 0.0
14/05:30am 12.0 11.7 10.2 89 0.9 NNW 2 7 1 4 1020.1 - 0.0
14/05:00am 11.9 12.0 10.1 89 0.9 CALM 0 6 0 3 1020.2 - 0.0
14/04:30am 11.7 10.4 9.9 89 0.9 S 7 9 4 5 1020.1 - 0.0
14/04:00am 11.6 11.7 10.0 90 0.8 CALM 0 0 0 0 1020.1 - 0.0
14/03:30am 11.6 11.7 10.2 91 0.7 CALM 0 0 0 0 1020.1 - 0.0
14/03:00am 11.4 11.5 10.1 92 0.7 CALM 0 0 0 0 1020.1 1020.1 0.0
14/02:30am 11.2 11.2 9.9 92 0.7 CALM 0 0 0 0 1020.5 - 0.0
14/02:00am 11.0 11.0 9.9 93 0.6 CALM 0 0 0 0 1020.8 - 0.0
14/01:30am 10.8 10.8 9.9 94 0.5 CALM 0 0 0 0 1021.1 - 0.0
14/01:00am 10.8 10.9 10.0 95 0.4 CALM 0 0 0 0 1021.3 - 0.0
14/12:30am 10.7 10.7 9.9 95 0.4 CALM 0 0 0 0 1021.6 - 0.0
14/12:00am 10.1 10.0 9.3 95 0.4 CALM 0 0 0 0 1021.7 1021.7 0.0
 
Date/Time
EST
Temp
°C
App
Temp
°C
Dew
Point
Rel
Hum
%
Delta-T
°C
Wind Press
QNH
hPa
Press
MSL
hPa
Rain
since 9 am
mm
Dir
 
Spd
km/h
Gust
km/h
Spd
kts
Gust
kts
13/11:30pm 9.5 9.2 8.6 94 0.4 CALM 0 0 0 0 1021.7 - 0.0
13/11:00pm 8.9 8.4 7.8 93 0.5 CALM 0 0 0 0 1021.8 - 0.0
13/10:30pm 10.1 9.9 9.2 94 0.4 CALM 0 0 0 0 1022.0 - 0.0
13/10:00pm 10.3 10.1 9.2 93 0.5 CALM 0 0 0 0 1022.2 - 0.0
13/09:30pm 10.1 9.8 8.5 90 0.8 CALM 0 0 0 0 1022.5 - 0.0
13/09:00pm 11.1 11.0 9.5 90 0.8 CALM 0 0 0 0 1022.5 1022.5 0.0
13/08:30pm 11.6 11.4 9.2 85 1.2 CALM 0 0 0 0 1022.6 - 0.0
13/08:00pm 12.9 13.1 10.4 85 1.3 CALM 0 0 0 0 1022.6 - 0.0
13/07:30pm 13.4 13.6 10.6 83 1.5 CALM 0 0 0 0 1022.5 - 0.0
13/07:00pm 13.9 12.6 10.1 78 2.0 N 7 11 4 6 1022.4 - 0.0
13/06:30pm 14.1 13.0 10.5 79 1.9 N 7 11 4 6 1022.3 - 0.0
13/06:00pm 14.2 12.7 10.6 79 1.9 NNE 9 17 5 9 1022.2 1022.2 0.0
13/05:30pm 14.7 13.1 10.3 75 2.3 NNE 9 15 5 8 1022.1 - 0.0
13/05:00pm 15.5 13.2 10.3 71 2.7 NNE 13 20 7 11 1022.0 - 0.0
13/04:30pm 15.9 13.5 10.0 68 3.1 NNE 13 22 7 12 1022.0 - 0.0
13/04:00pm 16.2 13.3 9.6 65 3.4 NE 15 26 8 14 1022.0 - 0.0
13/03:30pm 16.7 13.9 9.9 64 3.6 NE 15 24 8 13 1022.1 - 0.0
13/03:00pm 17.1 14.6 9.8 62 3.8 NE 13 22 7 12 1022.2 1022.2 0.0
13/02:30pm 17.1 14.1 9.3 60 4.1 NE 15 22 8 12 1022.5 - 0.0
13/02:00pm 17.1 14.2 9.8 62 3.8 ENE 15 22 8 12 1022.9 - 0.0
13/01:30pm 16.9 14.0 9.6 62 3.8 E 15 20 8 11 1023.3 - 0.0
13/01:00pm 16.7 13.7 9.1 61 3.9 E 15 22 8 12 1023.6 - 0.0
13/12:30pm 16.5 13.3 8.5 59 4.1 E 15 22 8 12 1024.2 - 0.0
13/12:00pm 16.6 13.8 8.6 59 4.1 ESE 13 20 7 11 1024.8 1024.8 0.0
13/11:30am 16.7 14.0 9.1 61 3.9 E 13 20 7 11 1025.1 - 0.0
13/11:00am 16.4 13.2 8.4 59 4.1 ESE 15 20 8 11 1025.3 - 0.0
13/10:30am 16.1 13.2 8.1 59 4.0 ESE 13 17 7 9 1025.8 - 0.0
13/10:00am 15.7 12.8 8.2 61 3.8 ESE 13 19 7 10 1026.0 - 0.0
13/09:30am 15.2 12.6 7.7 61 3.7 ESE 11 17 6 9 1026.5 - 0.0
13/09:00am 14.6 14.0 7.4 62 3.5 CALM 0 0 0 0 1026.4 1026.4 0.0
13/08:30am 13.2 12.6 7.2 67 2.9 CALM 0 0 0 0 1026.7 - 0.0
13/08:00am 11.5 10.9 7.2 75 2.1 CALM 0 0 0 0 1026.8 - 0.0
13/07:30am 9.5 8.8 7.1 85 1.1 CALM 0 0 0 0 1026.8 - 0.0
13/07:00am 8.0 7.2 6.5 90 0.7 CALM 0 0 0 0 1026.6 - 0.0
13/06:30am 8.0 6.1 6.5 90 0.7 W 6 7 3 4 1026.2 - 0.0
13/06:00am 8.0 5.5 6.5 90 0.7 NW 9 13 5 7 1026.0 1026.0 0.0
13/05:30am 7.8 7.0 6.4 91 0.6 CALM 0 0 0 0 1026.0 - 0.0
13/05:00am 7.9 7.2 6.8 93 0.5 CALM 0 0 0 0 1025.9 - 0.0
13/04:30am 7.2 5.1 5.8 91 0.6 SW 6 7 3 4 1025.8 - 0.0
13/04:00am 7.5 4.5 6.1 91 0.6 NW 11 13 6 7 1025.5 - 0.0
13/03:30am 7.5 5.4 5.8 89 0.8 SSW 6 7 3 4 1025.6 - 0.0
13/03:00am 8.0 5.8 6.3 89 0.8 SW 7 9 4 5 1025.5 1025.5 0.0
13/02:30am 8.8 6.7 6.8 87 0.9 SW 7 9 4 5 1025.6 - 0.0
13/02:00am 9.3 6.8 6.7 84 1.2 WNW 9 13 5 7 1025.8 - 0.0
13/01:30am 9.0 7.0 7.1 88 0.9 SW 7 9 4 5 1026.1 - 0.0
13/01:00am 9.0 6.8 7.8 92 0.6 NW 9 11 5 6 1026.4 - 0.0
13/12:30am 8.3 6.3 7.1 92 0.6 WSW 7 9 4 5 1026.6 - 0.0
13/12:00am 8.0 5.9 6.8 92 0.6 SW 7 9 4 5 1026.7 1026.7 0.0
 
Date/Time
EST
Temp
°C
App
Temp
°C
Dew
Point
Rel
Hum
%
Delta-T
°C
Wind Press
QNH
hPa
Press
MSL
hPa
Rain
since 9 am
mm
Dir
 
Spd
km/h
Gust
km/h
Spd
kts
Gust
kts
12/11:30pm 8.0 5.6 6.8 92 0.6 SSW 9 11 5 6 1026.7 - 0.0
12/11:00pm 8.1 6.1 6.4 89 0.8 WSW 6 9 3 5 1026.8 - 0.0
12/10:30pm 8.4 7.5 6.2 86 1.0 CALM 0 0 0 0 1026.8 - 0.0
12/10:00pm 9.5 8.1 7.1 85 1.1 SW 4 7 2 4 1026.9 - 0.0
12/09:30pm 10.1 8.3 7.2 82 1.4 WNW 6 9 3 5 1026.8 - 0.0
12/09:00pm 10.0 7.8 7.8 86 1.0 NW 9 13 5 7 1026.9 1026.9 0.0
12/08:30pm 9.8 8.8 7.4 85 1.1 W 2 7 1 4 1026.8 - 0.0
12/08:00pm 10.4 7.8 7.8 84 1.3 NNW 11 15 6 8 1026.7 - 0.0
12/07:30pm 11.1 8.9 8.0 81 1.5 NW 9 13 5 7 1026.7 - 0.0
12/07:00pm 11.8 10.0 8.1 78 1.8 NW 7 11 4 6 1026.4 - 0.0
12/06:30pm 11.9 9.9 6.4 69 2.6 NE 6 9 3 5 1026.1 - 0.0
12/06:00pm 12.6 10.5 6.6 67 2.8 ENE 7 13 4 7 1025.9 1025.9 0.0
12/05:30pm 13.3 10.8 6.6 64 3.2 E 9 13 5 7 1025.8 - 0.0
12/05:00pm 14.2 11.7 6.6 60 3.7 E 9 13 5 7 1025.5 - 0.0
12/04:30pm 14.8 12.4 7.1 60 3.8 ENE 9 15 5 8 1025.2 - 0.0
12/04:00pm 15.1 12.3 6.9 58 4.0 E 11 17 6 9 1025.0 - 0.0
12/03:30pm 15.8 13.4 7.0 56 4.3 E 9 15 5 8 1024.9 - 0.0
12/03:00pm 15.6 12.8 6.9 56 4.2 E 11 15 6 8 1024.7 1024.7 0.0
12/02:30pm 15.7 12.4 6.4 54 4.5 E 13 20 7 11 1024.6 - 0.0
12/02:00pm 16.1 12.4 6.5 53 4.7 E 15 22 8 12 1024.6 - 0.0
12/01:30pm 16.1 12.1 5.1 48 5.2 E 15 22 8 12 1024.5 - 0.0
12/01:00pm 16.4 12.9 5.4 48 5.3 E 13 20 7 11 1024.7 - 0.0
12/12:30pm 16.2 12.2 4.9 47 5.3 E 15 20 8 11 1024.9 - 0.0
12/12:00pm 15.9 11.9 4.9 48 5.2 E 15 20 8 11 1025.0 1025.0 0.0

Other Formats:

Comma delimited format used in spreadsheet applications
http://www.bom.gov.au/fwo/IDN60801/IDN60801.95929.axf

JavaScript Object Notation format (JSON) in row-major order
http://www.bom.gov.au/fwo/IDN60801/IDN60801.95929.json